CMA CGM Volga — 5BJR2 — position and weather

sailwx.info

Track history (hours):
 
Tides and Currents Weather Stations Pressure Air Temp Water Temp Dewpoint Dewpoint Depression Visibility Wind Speed Wind Dir Waves Ship Positions

CMA CGM Volga

Last reported at 2017-Sep-24 09:34 UTC. Time now 2017-Sep-24 23:03 UTC.
Position N 53°11' E 003°32'.

Length 184 m; draft 6.9 m.

Type: Cargo ship. MMSI: 212456000.

Date/timePositionNaut miles runAvg speedWind from/ knotsBaromVisibWave heightAir tempDewpointWater temp
2017-Sep-24 09:34N 53°11' E 003°32'214.9
2017-Sep-24 09:27N 53°09' E 003°30'4515.3
2017-Sep-24 06:30N 52°28' E 002°58'816.0
2017-Sep-24 05:59N 52°21' E 002°52'1016.3
2017-Sep-24 05:22N 52°13' E 002°43'816.3
2017-Sep-24 04:54N 52°07' E 002°36'616.4
2017-Sep-24 04:30N 52°03' E 002°27'816.5
2017-Sep-24 04:00N 51°57' E 002°17'816.5
2017-Sep-24 03:30N 51°52' E 002°06'816.1
2017-Sep-24 03:00N 51°49' E 001°54'714.0
2017-Sep-24 02:30N 51°50' E 001°43'612.1
2017-Sep-24 02:01N 51°52' E 001°34'611.4
2017-Sep-24 01:31N 51°56' E 001°28'611.9
2017-Sep-24 01:00N 51°56' E 001°19'1 2.5
2017-Sep-24 00:30N 51°58' E 001°18'0 0.0
2017-Sep-23 23:54N 51°58' E 001°18'0 0.0
2017-Sep-23 23:30N 51°58' E 001°18'0 0.0
2017-Sep-23 22:54N 51°58' E 001°18'0 0.0
2017-Sep-23 22:27N 51°58' E 001°18'0 0.0
2017-Sep-23 21:57N 51°58' E 001°18'0 0.0
2017-Sep-23 21:30N 51°58' E 001°18'0 0.0
2017-Sep-23 20:57N 51°58' E 001°18'0 0.0
2017-Sep-23 20:30N 51°58' E 001°18'0 0.0
2017-Sep-23 19:54N 51°58' E 001°18'15 0.4
2017-Sep-22 01:59N 51°55' E 001°42'0 0.2
2017-Sep-22 01:29N 51°55' E 001°42'0 0.1
2017-Sep-22 00:59N 51°55' E 001°42'0 0.1
2017-Sep-22 00:29N 51°55' E 001°42'0 0.1
2017-Sep-21 23:59N 51°55' E 001°42'0 0.0
2017-Sep-21 23:29N 51°55' E 001°42'0 0.0
2017-Sep-21 22:59N 51°55' E 001°42'0 0.0
2017-Sep-21 22:23N 51°55' E 001°42'0 0.0
2017-Sep-21 21:56N 51°55' E 001°42'0 0.0
2017-Sep-21 21:29N 51°55' E 001°42'0 0.0
2017-Sep-21 20:59N 51°55' E 001°42'0 0.0
2017-Sep-21 20:29N 51°55' E 001°42'0 0.3
2017-Sep-21 20:00N 51°55' E 001°42'1 1.7
2017-Sep-21 19:31N 51°55' E 001°44'4 7.9
2017-Sep-21 19:00N 51°52' E 001°48'510.5
2017-Sep-21 18:30N 51°50' E 001°56'612.7
2017-Sep-21 18:00N 51°53' E 002°05'9512.2
2017-Sep-21 10:14N 52°58' E 003°58'4812.5
2017-Sep-21 06:23N 53°32' E 004°56'10113.1
2017-Sep-20 22:41N 53°59' E 007°40'614.0
2017-Sep-20 22:16N 53°54' E 007°45'512.3
2017-Sep-20 21:53N 53°52' E 007°53'511.8
2017-Sep-20 21:30N 53°51' E 008°00'714.1
2017-Sep-20 21:00N 53°47' E 008°09'714.3
2017-Sep-20 20:30N 53°42' E 008°19'714.1
2017-Sep-20 20:00N 53°38' E 008°27'3 2.8
2017-Sep-20 19:00N 53°36' E 008°31'0 0.0
2017-Sep-20 18:24N 53°36' E 008°31'0 0.0
2017-Sep-20 17:51N 53°36' E 008°31'0 0.0
2017-Sep-20 17:27N 53°36' E 008°31'0 0.0
2017-Sep-20 17:00N 53°36' E 008°31'0 0.0
2017-Sep-20 16:12N 53°36' E 008°31'0 0.0
2017-Sep-20 16:00N 53°36' E 008°31'0 0.0
2017-Sep-20 15:30N 53°36' E 008°31'0 0.0
2017-Sep-20 14:54N 53°36' E 008°31'0 0.0
2017-Sep-20 13:51N 53°36' E 008°31'0 0.0
2017-Sep-20 13:21N 53°36' E 008°31'0 0.0
2017-Sep-20 12:45N 53°36' E 008°31'0 0.0
2017-Sep-20 12:27N 53°36' E 008°31'0 0.0
2017-Sep-20 11:55N 53°36' E 008°31'1 1.8
2017-Sep-20 11:30N 53°36' E 008°30'611.6
2017-Sep-20 11:00N 53°40' E 008°23'713.6
2017-Sep-20 10:30N 53°44' E 008°14'612.7
2017-Sep-20 10:00N 53°49' E 008°07'611.2
2017-Sep-20 09:30N 53°51' E 007°58'3 6.3
2017-Sep-20 09:00N 53°50' E 007°53'3 6.9
2017-Sep-20 08:30N 53°49' E 007°58'5 9.9
2017-Sep-20 08:00N 53°45' E 008°03'611.7
2017-Sep-20 07:29N 53°39' E 008°07'4 8.2
2017-Sep-20 07:00N 53°35' E 008°09'0 0.1
2017-Sep-20 06:19N 53°35' E 008°09'0 0.0
2017-Sep-20 05:49N 53°35' E 008°09'0 0.0
2017-Sep-20 04:28N 53°35' E 008°09'0 0.0
2017-Sep-20 03:58N 53°35' E 008°09'0 0.0
2017-Sep-20 03:28N 53°35' E 008°09'0 0.0
2017-Sep-20 02:58N 53°35' E 008°09'0 0.0
2017-Sep-20 02:16N 53°35' E 008°09'0 0.0
2017-Sep-20 01:58N 53°35' E 008°09'0 0.0
2017-Sep-20 01:28N 53°35' E 008°09'0 0.0
2017-Sep-19 23:52N 53°35' E 008°09'0 0.0
2017-Sep-19 23:28N 53°35' E 008°09'0 0.0
2017-Sep-19 22:31N 53°35' E 008°09'0 0.0
2017-Sep-19 22:28N 53°35' E 008°09'0 0.0
2017-Sep-19 21:55N 53°35' E 008°09'0 0.0
2017-Sep-19 20:58N 53°35' E 008°09'0 0.0
2017-Sep-19 20:13N 53°35' E 008°09'0 0.0
2017-Sep-19 19:58N 53°35' E 008°09'0 0.0
2017-Sep-19 18:37N 53°35' E 008°09'0 0.0
2017-Sep-19 18:25N 53°35' E 008°09'0 0.0
2017-Sep-19 17:43N 53°35' E 008°09'0 0.0
2017-Sep-19 17:28N 53°35' E 008°09'0 0.0
2017-Sep-19 15:58N 53°35' E 008°09'0 0.0
2017-Sep-19 15:28N 53°35' E 008°09'0 0.0
2017-Sep-19 14:52N 53°35' E 008°09'0 0.0
2017-Sep-19 13:52N 53°35' E 008°09'0 0.0
2017-Sep-19 13:16N 53°35' E 008°09'0 0.0
2017-Sep-19 12:52N 53°35' E 008°09'0 0.0
2017-Sep-19 12:28N 53°35' E 008°09'0 0.0
2017-Sep-19 11:58N 53°35' E 008°09'0 0.0
2017-Sep-19 11:28N 53°35' E 008°09'1 2.1
2017-Sep-19 11:00N 53°36' E 008°09'712.9
2017-Sep-19 10:30N 53°42' E 008°04'816.2
2017-Sep-19 10:00N 53°49' E 007°57'810.5
2017-Sep-19 09:16N 53°53' E 007°46'1 5.4
2017-Sep-19 09:00N 53°53' E 007°43'4312.3
2017-Sep-19 05:28N 54°35' E 007°24'814.5
2017-Sep-19 04:57N 54°43' E 007°23'614.5
2017-Sep-19 04:30N 54°49' E 007°23'714.2
2017-Sep-19 04:00N 54°56' E 007°22'714.0
2017-Sep-19 03:30N 55°03' E 007°21'714.0
2017-Sep-19 03:00N 55°10' E 007°21'713.8
2017-Sep-19 02:30N 55°17' E 007°20'713.8
2017-Sep-19 01:58N 55°25' E 007°19'613.4
2017-Sep-19 01:30N 55°31' E 007°19'713.4
2017-Sep-19 01:00N 55°37' E 007°20'713.4
2017-Sep-19 00:29N 55°44' E 007°23'15310.4
2017-Sep-18 09:47N 57°48' E 010°05'414.5
2017-Sep-18 09:29N 57°48' E 010°13'714.3
2017-Sep-18 09:00N 57°49' E 010°26'713.9
2017-Sep-18 08:30N 57°48' E 010°39'714.0
2017-Sep-18 08:00N 57°46' E 010°51'714.4
2017-Sep-18 07:30N 57°41' E 011°01'714.4
2017-Sep-18 07:00N 57°36' E 011°10'713.9
2017-Sep-18 06:30N 57°31' E 011°20'713.5
2017-Sep-18 06:00N 57°26' E 011°27'714.0
2017-Sep-18 05:30N 57°19' E 011°31'713.9
2017-Sep-18 05:00N 57°12' E 011°36'2210.5
2017-Sep-18 02:54N 56°52' E 011°49'8 8.2
2017-Sep-18 01:54N 56°44' E 011°51'4 9.0
2017-Sep-18 01:27N 56°40' E 011°48'8910.5
2017-Sep-17 16:58N 55°14' E 011°06'714.5
2017-Sep-17 16:30N 55°07' E 011°03'714.9
2017-Sep-17 16:01N 55°00' E 011°02'714.5
2017-Sep-17 15:30N 54°54' E 010°54'714.4
2017-Sep-17 15:01N 54°47' E 010°52'713.0
2017-Sep-17 14:31N 54°41' E 010°56'714.2
2017-Sep-17 14:01N 54°37' E 011°06'714.7
2017-Sep-17 13:30N 54°34' E 011°18'815.1
2017-Sep-17 13:00N 54°31' E 011°30'713.9
2017-Sep-17 12:30N 54°28' E 011°40'714.1
2017-Sep-17 12:00N 54°26' E 011°52'612.6
2017-Sep-17 11:30N 54°26' E 012°03'612.4
2017-Sep-17 11:00N 54°29' E 012°13'10813.8
2017-Sep-17 03:09N 55°30' E 014°48'414.5
2017-Sep-17 02:53N 55°32' E 014°54'614.6
2017-Sep-17 02:30N 55°35' E 015°02'714.5
2017-Sep-17 02:00N 55°39' E 015°14'714.5
2017-Sep-17 01:30N 55°42' E 015°25'714.2
2017-Sep-17 01:00N 55°46' E 015°36'714.3
2017-Sep-17 00:30N 55°49' E 015°47'714.1
2017-Sep-17 00:00N 55°53' E 015°58'714.2
2017-Sep-16 23:30N 55°56' E 016°09'714.2
2017-Sep-16 23:00N 55°60' E 016°20'714.4
2017-Sep-16 22:30N 56°03' E 016°31'714.3
2017-Sep-16 22:00N 56°07' E 016°42'714.1
2017-Sep-16 21:30N 56°11' E 016°52'714.3
2017-Sep-16 21:00N 56°16' E 017°02'713.9
2017-Sep-16 20:30N 56°20' E 017°12'913.9
2017-Sep-16 19:51N 56°25' E 017°25'514.0
2017-Sep-16 19:30N 56°28' E 017°32'26413.3
2017-Sep-15 23:43N 59°37' E 023°20'313.2
2017-Sep-15 23:30N 59°38' E 023°26'813.4
2017-Sep-15 22:53N 59°40' E 023°41'1913.7
2017-Sep-15 21:28N 59°46' E 024°18'613.5
2017-Sep-15 21:00N 59°48' E 024°30'510.6
2017-Sep-15 20:30N 59°49' E 024°40'4 8.0
2017-Sep-15 20:00N 59°50' E 024°48'4 8.0
2017-Sep-15 19:30N 59°51' E 024°56'40 8.4
2017-Sep-15 14:44N 60°05' E 026°11'415.9
2017-Sep-15 14:30N 60°07' E 026°16'816.8
2017-Sep-15 14:01N 60°14' E 026°25'714.4
2017-Sep-15 13:31N 60°19' E 026°36'815.1
2017-Sep-15 13:01N 60°23' E 026°49'4 6.9
2017-Sep-15 12:29N 60°25' E 026°55'0 0.0
2017-Sep-15 11:59N 60°25' E 026°55'0 0.0
2017-Sep-15 11:23N 60°25' E 026°55'0 0.0
2017-Sep-15 10:56N 60°25' E 026°55'0 0.0
2017-Sep-15 10:29N 60°25' E 026°55'0 0.0
2017-Sep-15 09:59N 60°25' E 026°55'0 0.0
2017-Sep-15 09:20N 60°25' E 026°55'0 0.0
2017-Sep-15 08:53N 60°25' E 026°55'0 0.0
2017-Sep-15 08:29N 60°25' E 026°55'0 0.0
2017-Sep-15 07:59N 60°25' E 026°55'0 0.0
2017-Sep-15 07:29N 60°25' E 026°55'0 0.0
2017-Sep-15 06:56N 60°25' E 026°55'0 0.0
2017-Sep-15 06:29N 60°25' E 026°55'0 0.0
2017-Sep-15 05:59N 60°25' E 026°55'0 0.0
2017-Sep-15 05:29N 60°25' E 026°55'0 0.0
2017-Sep-15 04:59N 60°25' E 026°55'0 0.0
2017-Sep-15 04:29N 60°25' E 026°55'0 0.0
2017-Sep-15 03:53N 60°25' E 026°55'0 0.0
2017-Sep-15 03:23N 60°25' E 026°55'0 0.0
2017-Sep-15 02:59N 60°25' E 026°55'0 0.0
2017-Sep-15 02:29N 60°25' E 026°55'0 0.0
2017-Sep-15 01:59N 60°25' E 026°55'0 0.0
2017-Sep-15 01:29N 60°25' E 026°55'0 0.0
2017-Sep-15 00:59N 60°25' E 026°55'0 0.0
2017-Sep-15 00:29N 60°25' E 026°55'0 0.0
2017-Sep-14 23:59N 60°25' E 026°55'0 0.0
2017-Sep-14 23:26N 60°25' E 026°55'0 0.0
2017-Sep-14 22:53N 60°25' E 026°55'0 0.0
2017-Sep-14 22:29N 60°25' E 026°55'0 0.0
2017-Sep-14 21:56N 60°25' E 026°55'0 0.0
2017-Sep-14 21:26N 60°25' E 026°55'0 0.0
2017-Sep-14 20:56N 60°25' E 026°55'0 0.0
2017-Sep-14 20:29N 60°25' E 026°55'0 0.0
2017-Sep-14 19:59N 60°25' E 026°55'0 0.0
2017-Sep-14 19:29N 60°25' E 026°55'0 0.0
2017-Sep-14 18:53N 60°25' E 026°55'0 0.0
2017-Sep-14 18:29N 60°25' E 026°55'0 0.0
2017-Sep-14 17:59N 60°25' E 026°55'0 0.0
2017-Sep-14 17:20N 60°25' E 026°55'0 0.0
2017-Sep-14 16:56N 60°25' E 026°55'0 0.0
2017-Sep-14 16:29N 60°25' E 026°55'0 0.0
2017-Sep-14 15:59N 60°25' E 026°55'0 0.0
2017-Sep-14 15:29N 60°25' E 026°55'0 0.0
2017-Sep-14 14:59N 60°25' E 026°55'0 0.0
2017-Sep-14 14:23N 60°25' E 026°55'0 0.0
2017-Sep-14 13:59N 60°25' E 026°55'0 0.0
2017-Sep-14 13:26N 60°25' E 026°55'0 0.0
2017-Sep-14 12:59N 60°25' E 026°55'0 0.0
2017-Sep-14 12:29N 60°25' E 026°55'0 0.0
2017-Sep-14 11:59N 60°25' E 026°55'0 0.0
2017-Sep-14 11:29N 60°25' E 026°55'0 0.0
2017-Sep-14 10:47N 60°25' E 026°55'0 0.0
2017-Sep-14 10:29N 60°25' E 026°55'0 0.0
2017-Sep-14 09:59N 60°25' E 026°55'  
Track history (hours):
 
Tides and Currents Weather Stations Pressure Air Temp Water Temp Dewpoint Dewpoint Depression Visibility Wind Speed Wind Dir Waves Ship Positions

CMA CGM Volga

Last reported at 2017-Sep-24 09:34 UTC. Time now 2017-Sep-24 23:03 UTC.
Position N 53°11' E 003°32'.

Length 184 m; draft 6.9 m.

Type: Cargo ship. MMSI: 212456000.

Date/timePositionNaut miles runAvg speedWind from/ knotsBaromVisibWave heightAir tempDewpointWater temp
2017-Sep-24 09:34N 53°11' E 003°32'214.9
2017-Sep-24 09:27N 53°09' E 003°30'4515.3
2017-Sep-24 06:30N 52°28' E 002°58'816.0
2017-Sep-24 05:59N 52°21' E 002°52'1016.3
2017-Sep-24 05:22N 52°13' E 002°43'816.3
2017-Sep-24 04:54N 52°07' E 002°36'616.4
2017-Sep-24 04:30N 52°03' E 002°27'816.5
2017-Sep-24 04:00N 51°57' E 002°17'816.5
2017-Sep-24 03:30N 51°52' E 002°06'816.1
2017-Sep-24 03:00N 51°49' E 001°54'714.0
2017-Sep-24 02:30N 51°50' E 001°43'612.1
2017-Sep-24 02:01N 51°52' E 001°34'611.4
2017-Sep-24 01:31N 51°56' E 001°28'611.9
2017-Sep-24 01:00N 51°56' E 001°19'1 2.5
2017-Sep-24 00:30N 51°58' E 001°18'0 0.0
2017-Sep-23 23:54N 51°58' E 001°18'0 0.0
2017-Sep-23 23:30N 51°58' E 001°18'0 0.0
2017-Sep-23 22:54N 51°58' E 001°18'0 0.0
2017-Sep-23 22:27N 51°58' E 001°18'0 0.0
2017-Sep-23 21:57N 51°58' E 001°18'0 0.0
2017-Sep-23 21:30N 51°58' E 001°18'0 0.0
2017-Sep-23 20:57N 51°58' E 001°18'0 0.0
2017-Sep-23 20:30N 51°58' E 001°18'0 0.0
2017-Sep-23 19:54N 51°58' E 001°18'15 0.4
2017-Sep-22 01:59N 51°55' E 001°42'0 0.2
2017-Sep-22 01:29N 51°55' E 001°42'0 0.1
2017-Sep-22 00:59N 51°55' E 001°42'0 0.1
2017-Sep-22 00:29N 51°55' E 001°42'0 0.1
2017-Sep-21 23:59N 51°55' E 001°42'0 0.0
2017-Sep-21 23:29N 51°55' E 001°42'0 0.0
2017-Sep-21 22:59N 51°55' E 001°42'0 0.0
2017-Sep-21 22:23N 51°55' E 001°42'0 0.0
2017-Sep-21 21:56N 51°55' E 001°42'0 0.0
2017-Sep-21 21:29N 51°55' E 001°42'0 0.0
2017-Sep-21 20:59N 51°55' E 001°42'0 0.0
2017-Sep-21 20:29N 51°55' E 001°42'0 0.3
2017-Sep-21 20:00N 51°55' E 001°42'1 1.7
2017-Sep-21 19:31N 51°55' E 001°44'4 7.9
2017-Sep-21 19:00N 51°52' E 001°48'510.5
2017-Sep-21 18:30N 51°50' E 001°56'612.7
2017-Sep-21 18:00N 51°53' E 002°05'9512.2
2017-Sep-21 10:14N 52°58' E 003°58'4812.5
2017-Sep-21 06:23N 53°32' E 004°56'10113.1
2017-Sep-20 22:41N 53°59' E 007°40'614.0
2017-Sep-20 22:16N 53°54' E 007°45'512.3
2017-Sep-20 21:53N 53°52' E 007°53'511.8
2017-Sep-20 21:30N 53°51' E 008°00'714.1
2017-Sep-20 21:00N 53°47' E 008°09'714.3
2017-Sep-20 20:30N 53°42' E 008°19'714.1
2017-Sep-20 20:00N 53°38' E 008°27'3 2.8
2017-Sep-20 19:00N 53°36' E 008°31'0 0.0
2017-Sep-20 18:24N 53°36' E 008°31'0 0.0
2017-Sep-20 17:51N 53°36' E 008°31'0 0.0
2017-Sep-20 17:27N 53°36' E 008°31'0 0.0
2017-Sep-20 17:00N 53°36' E 008°31'0 0.0
2017-Sep-20 16:12N 53°36' E 008°31'0 0.0
2017-Sep-20 16:00N 53°36' E 008°31'0 0.0
2017-Sep-20 15:30N 53°36' E 008°31'0 0.0
2017-Sep-20 14:54N 53°36' E 008°31'0 0.0
2017-Sep-20 13:51N 53°36' E 008°31'0 0.0
2017-Sep-20 13:21N 53°36' E 008°31'0 0.0
2017-Sep-20 12:45N 53°36' E 008°31'0 0.0
2017-Sep-20 12:27N 53°36' E 008°31'0 0.0
2017-Sep-20 11:55N 53°36' E 008°31'1 1.8
2017-Sep-20 11:30N 53°36' E 008°30'611.6
2017-Sep-20 11:00N 53°40' E 008°23'713.6
2017-Sep-20 10:30N 53°44' E 008°14'612.7
2017-Sep-20 10:00N 53°49' E 008°07'611.2
2017-Sep-20 09:30N 53°51' E 007°58'3 6.3
2017-Sep-20 09:00N 53°50' E 007°53'3 6.9
2017-Sep-20 08:30N 53°49' E 007°58'5 9.9
2017-Sep-20 08:00N 53°45' E 008°03'611.7
2017-Sep-20 07:29N 53°39' E 008°07'4 8.2
2017-Sep-20 07:00N 53°35' E 008°09'0 0.1
2017-Sep-20 06:19N 53°35' E 008°09'0 0.0
2017-Sep-20 05:49N 53°35' E 008°09'0 0.0
2017-Sep-20 04:28N 53°35' E 008°09'0 0.0
2017-Sep-20 03:58N 53°35' E 008°09'0 0.0
2017-Sep-20 03:28N 53°35' E 008°09'0 0.0
2017-Sep-20 02:58N 53°35' E 008°09'0 0.0
2017-Sep-20 02:16N 53°35' E 008°09'0 0.0
2017-Sep-20 01:58N 53°35' E 008°09'0 0.0
2017-Sep-20 01:28N 53°35' E 008°09'0 0.0
2017-Sep-19 23:52N 53°35' E 008°09'0 0.0
2017-Sep-19 23:28N 53°35' E 008°09'0 0.0
2017-Sep-19 22:31N 53°35' E 008°09'0 0.0
2017-Sep-19 22:28N 53°35' E 008°09'0 0.0
2017-Sep-19 21:55N 53°35' E 008°09'0 0.0
2017-Sep-19 20:58N 53°35' E 008°09'0 0.0
2017-Sep-19 20:13N 53°35' E 008°09'0 0.0
2017-Sep-19 19:58N 53°35' E 008°09'0 0.0
2017-Sep-19 18:37N 53°35' E 008°09'0 0.0
2017-Sep-19 18:25N 53°35' E 008°09'0 0.0
2017-Sep-19 17:43N 53°35' E 008°09'0 0.0
2017-Sep-19 17:28N 53°35' E 008°09'0 0.0
2017-Sep-19 15:58N 53°35' E 008°09'0 0.0
2017-Sep-19 15:28N 53°35' E 008°09'0 0.0
2017-Sep-19 14:52N 53°35' E 008°09'0 0.0
2017-Sep-19 13:52N 53°35' E 008°09'0 0.0
2017-Sep-19 13:16N 53°35' E 008°09'0 0.0
2017-Sep-19 12:52N 53°35' E 008°09'0 0.0
2017-Sep-19 12:28N 53°35' E 008°09'0 0.0
2017-Sep-19 11:58N 53°35' E 008°09'0 0.0
2017-Sep-19 11:28N 53°35' E 008°09'1 2.1
2017-Sep-19 11:00N 53°36' E 008°09'712.9
2017-Sep-19 10:30N 53°42' E 008°04'816.2
2017-Sep-19 10:00N 53°49' E 007°57'810.5
2017-Sep-19 09:16N 53°53' E 007°46'1 5.4
2017-Sep-19 09:00N 53°53' E 007°43'4312.3
2017-Sep-19 05:28N 54°35' E 007°24'814.5
2017-Sep-19 04:57N 54°43' E 007°23'614.5
2017-Sep-19 04:30N 54°49' E 007°23'714.2
2017-Sep-19 04:00N 54°56' E 007°22'714.0
2017-Sep-19 03:30N 55°03' E 007°21'714.0
2017-Sep-19 03:00N 55°10' E 007°21'713.8
2017-Sep-19 02:30N 55°17' E 007°20'713.8
2017-Sep-19 01:58N 55°25' E 007°19'613.4
2017-Sep-19 01:30N 55°31' E 007°19'713.4
2017-Sep-19 01:00N 55°37' E 007°20'713.4
2017-Sep-19 00:29N 55°44' E 007°23'15310.4
2017-Sep-18 09:47N 57°48' E 010°05'414.5
2017-Sep-18 09:29N 57°48' E 010°13'714.3
2017-Sep-18 09:00N 57°49' E 010°26'713.9
2017-Sep-18 08:30N 57°48' E 010°39'714.0
2017-Sep-18 08:00N 57°46' E 010°51'714.4
2017-Sep-18 07:30N 57°41' E 011°01'714.4
2017-Sep-18 07:00N 57°36' E 011°10'713.9
2017-Sep-18 06:30N 57°31' E 011°20'713.5
2017-Sep-18 06:00N 57°26' E 011°27'714.0
2017-Sep-18 05:30N 57°19' E 011°31'713.9
2017-Sep-18 05:00N 57°12' E 011°36'2210.5
2017-Sep-18 02:54N 56°52' E 011°49'8 8.2
2017-Sep-18 01:54N 56°44' E 011°51'4 9.0
2017-Sep-18 01:27N 56°40' E 011°48'8910.5
2017-Sep-17 16:58N 55°14' E 011°06'714.5
2017-Sep-17 16:30N 55°07' E 011°03'714.9
2017-Sep-17 16:01N 55°00' E 011°02'714.5
2017-Sep-17 15:30N 54°54' E 010°54'714.4
2017-Sep-17 15:01N 54°47' E 010°52'713.0
2017-Sep-17 14:31N 54°41' E 010°56'714.2
2017-Sep-17 14:01N 54°37' E 011°06'714.7
2017-Sep-17 13:30N 54°34' E 011°18'815.1
2017-Sep-17 13:00N 54°31' E 011°30'713.9
2017-Sep-17 12:30N 54°28' E 011°40'714.1
2017-Sep-17 12:00N 54°26' E 011°52'612.6
2017-Sep-17 11:30N 54°26' E 012°03'612.4
2017-Sep-17 11:00N 54°29' E 012°13'10813.8
2017-Sep-17 03:09N 55°30' E 014°48'414.5
2017-Sep-17 02:53N 55°32' E 014°54'614.6
2017-Sep-17 02:30N 55°35' E 015°02'714.5
2017-Sep-17 02:00N 55°39' E 015°14'714.5
2017-Sep-17 01:30N 55°42' E 015°25'714.2
2017-Sep-17 01:00N 55°46' E 015°36'714.3
2017-Sep-17 00:30N 55°49' E 015°47'714.1
2017-Sep-17 00:00N 55°53' E 015°58'714.2
2017-Sep-16 23:30N 55°56' E 016°09'714.2
2017-Sep-16 23:00N 55°60' E 016°20'714.4
2017-Sep-16 22:30N 56°03' E 016°31'714.3
2017-Sep-16 22:00N 56°07' E 016°42'714.1
2017-Sep-16 21:30N 56°11' E 016°52'714.3
2017-Sep-16 21:00N 56°16' E 017°02'713.9
2017-Sep-16 20:30N 56°20' E 017°12'913.9
2017-Sep-16 19:51N 56°25' E 017°25'514.0
2017-Sep-16 19:30N 56°28' E 017°32'26413.3
2017-Sep-15 23:43N 59°37' E 023°20'313.2
2017-Sep-15 23:30N 59°38' E 023°26'813.4
2017-Sep-15 22:53N 59°40' E 023°41'1913.7
2017-Sep-15 21:28N 59°46' E 024°18'613.5
2017-Sep-15 21:00N 59°48' E 024°30'510.6
2017-Sep-15 20:30N 59°49' E 024°40'4 8.0
2017-Sep-15 20:00N 59°50' E 024°48'4 8.0
2017-Sep-15 19:30N 59°51' E 024°56'40 8.4
2017-Sep-15 14:44N 60°05' E 026°11'415.9
2017-Sep-15 14:30N 60°07' E 026°16'816.8
2017-Sep-15 14:01N 60°14' E 026°25'714.4
2017-Sep-15 13:31N 60°19' E 026°36'815.1
2017-Sep-15 13:01N 60°23' E 026°49'4 6.9
2017-Sep-15 12:29N 60°25' E 026°55'0 0.0
2017-Sep-15 11:59N 60°25' E 026°55'0 0.0
2017-Sep-15 11:23N 60°25' E 026°55'0 0.0
2017-Sep-15 10:56N 60°25' E 026°55'0 0.0
2017-Sep-15 10:29N 60°25' E 026°55'0 0.0
2017-Sep-15 09:59N 60°25' E 026°55'0 0.0
2017-Sep-15 09:20N 60°25' E 026°55'0 0.0
2017-Sep-15 08:53N 60°25' E 026°55'0 0.0
2017-Sep-15 08:29N 60°25' E 026°55'0 0.0
2017-Sep-15 07:59N 60°25' E 026°55'0 0.0
2017-Sep-15 07:29N 60°25' E 026°55'0 0.0
2017-Sep-15 06:56N 60°25' E 026°55'0 0.0
2017-Sep-15 06:29N 60°25' E 026°55'0 0.0
2017-Sep-15 05:59N 60°25' E 026°55'0 0.0
2017-Sep-15 05:29N 60°25' E 026°55'0 0.0
2017-Sep-15 04:59N 60°25' E 026°55'0 0.0
2017-Sep-15 04:29N 60°25' E 026°55'0 0.0
2017-Sep-15 03:53N 60°25' E 026°55'0 0.0
2017-Sep-15 03:23N 60°25' E 026°55'0 0.0
2017-Sep-15 02:59N 60°25' E 026°55'0 0.0
2017-Sep-15 02:29N 60°25' E 026°55'0 0.0
2017-Sep-15 01:59N 60°25' E 026°55'0 0.0
2017-Sep-15 01:29N 60°25' E 026°55'0 0.0
2017-Sep-15 00:59N 60°25' E 026°55'0 0.0
2017-Sep-15 00:29N 60°25' E 026°55'0 0.0
2017-Sep-14 23:59N 60°25' E 026°55'0 0.0
2017-Sep-14 23:26N 60°25' E 026°55'0 0.0
2017-Sep-14 22:53N 60°25' E 026°55'0 0.0
2017-Sep-14 22:29N 60°25' E 026°55'0 0.0
2017-Sep-14 21:56N 60°25' E 026°55'0 0.0
2017-Sep-14 21:26N 60°25' E 026°55'0 0.0
2017-Sep-14 20:56N 60°25' E 026°55'0 0.0
2017-Sep-14 20:29N 60°25' E 026°55'0 0.0
2017-Sep-14 19:59N 60°25' E 026°55'0 0.0
2017-Sep-14 19:29N 60°25' E 026°55'0 0.0
2017-Sep-14 18:53N 60°25' E 026°55'0 0.0
2017-Sep-14 18:29N 60°25' E 026°55'0 0.0
2017-Sep-14 17:59N 60°25' E 026°55'0 0.0
2017-Sep-14 17:20N 60°25' E 026°55'0 0.0
2017-Sep-14 16:56N 60°25' E 026°55'0 0.0
2017-Sep-14 16:29N 60°25' E 026°55'0 0.0
2017-Sep-14 15:59N 60°25' E 026°55'0 0.0
2017-Sep-14 15:29N 60°25' E 026°55'0 0.0
2017-Sep-14 14:59N 60°25' E 026°55'0 0.0
2017-Sep-14 14:23N 60°25' E 026°55'0 0.0
2017-Sep-14 13:59N 60°25' E 026°55'0 0.0
2017-Sep-14 13:26N 60°25' E 026°55'0 0.0
2017-Sep-14 12:59N 60°25' E 026°55'0 0.0
2017-Sep-14 12:29N 60°25' E 026°55'0 0.0
2017-Sep-14 11:59N 60°25' E 026°55'0 0.0
2017-Sep-14 11:29N 60°25' E 026°55'0 0.0
2017-Sep-14 10:47N 60°25' E 026°55'0 0.0
2017-Sep-14 10:29N 60°25' E 026°55'0 0.0
2017-Sep-14 09:59N 60°25' E 026°55'  

Dump ship's entire track history